N.mars — P3TL9 — position and weather

sailwx.info

Track history (hours):
 
Tides and Currents Weather Stations Pressure Air Temp Water Temp Dewpoint Dewpoint Depression Visibility Wind Speed Wind Dir Waves Ship Positions

N.mars

Last reported at 2017-Sep-13 10:30 UTC. Time now 2017-Sep-25 15:15 UTC.
Position N 30°49' W 116°60'.
Warning: this ship's position is 12 days out of date.

Length 228 m; draft 10.9 m.

Type: Tanker. MMSI: 210857000.

Date/timePositionNaut miles runAvg speedWind from/ knotsBaromVisibWave heightAir tempDewpointWater temp
2017-Sep-13 10:30N 30°49' W 116°60'1 1.1
2017-Sep-13 09:48N 30°50' W 117°00'0 1.2
2017-Sep-13 09:24N 30°50' W 117°01'1 1.4
2017-Sep-13 08:21N 30°51' W 117°03'3 1.4
2017-Sep-13 06:09N 30°52' W 117°06'1 1.5
2017-Sep-13 05:24N 30°52' W 117°07'1 1.3
2017-Sep-13 04:48N 30°52' W 117°08'2 0.9
2017-Sep-13 02:31N 30°51' W 117°09'912.1
2017-Sep-13 01:48N 30°42' W 117°06'412.2
2017-Sep-13 01:29N 30°39' W 117°05'612.5
2017-Sep-13 01:00N 30°33' W 117°04'812.4
2017-Sep-13 00:21N 30°25' W 117°01'412.4
2017-Sep-13 00:00N 30°21' W 117°00'912.2
2017-Sep-12 23:15N 30°12' W 116°58'312.2
2017-Sep-12 23:00N 30°09' W 116°57'  
2017-Sep-10 06:14N 30°47' W 117°08'813.6
2017-Sep-10 05:37N 30°55' W 117°11'213.7
2017-Sep-10 05:29N 30°57' W 117°11'1214.0
2017-Sep-10 04:38N 31°08' W 117°14'214.0
2017-Sep-10 04:30N 31°10' W 117°15'1714.2
2017-Sep-10 03:19N 31°26' W 117°20'414.4
2017-Sep-10 03:00N 31°31' W 117°21'714.3
2017-Sep-10 02:30N 31°38' W 117°23'714.3
2017-Sep-10 02:01N 31°45' W 117°25'714.0
2017-Sep-10 01:30N 31°51' W 117°26'813.4
2017-Sep-10 00:56N 31°59' W 117°29'613.3
2017-Sep-10 00:30N 32°04' W 117°30'713.5
2017-Sep-10 00:00N 32°11' W 117°32'713.7
2017-Sep-09 23:30N 32°18' W 117°34'713.4
2017-Sep-09 23:00N 32°24' W 117°36'611.6
2017-Sep-09 22:30N 32°30' W 117°38'612.1
2017-Sep-09 22:00N 32°36' W 117°39'713.2
2017-Sep-09 21:30N 32°42' W 117°42'713.2
2017-Sep-09 21:00N 32°48' W 117°46'713.1
2017-Sep-09 20:30N 32°53' W 117°50'713.0
2017-Sep-09 20:00N 32°59' W 117°54'612.9
2017-Sep-09 19:30N 33°05' W 117°57'713.0
2017-Sep-09 19:00N 33°10' W 118°01'612.9
2017-Sep-09 18:30N 33°16' W 118°05'612.9
2017-Sep-09 18:00N 33°22' W 118°08'713.0
2017-Sep-09 17:30N 33°28' W 118°10'713.0
2017-Sep-09 17:01N 33°34' W 118°13'612.6
2017-Sep-09 16:30N 33°40' W 118°15'3 6.7
2017-Sep-09 16:00N 33°44' W 118°16'2 4.3
2017-Sep-09 15:30N 33°46' W 118°16'0 0.4
2017-Sep-09 15:00N 33°46' W 118°16'0 0.0
2017-Sep-09 11:04N 33°46' W 118°16'0 0.0
2017-Sep-09 10:46N 33°46' W 118°16'0 0.0
2017-Sep-09 10:28N 33°46' W 118°16'0 0.0
2017-Sep-09 09:04N 33°46' W 118°16'0 0.0
2017-Sep-09 08:52N 33°46' W 118°16'0 0.0
2017-Sep-09 07:40N 33°46' W 118°16'0 0.0
2017-Sep-09 07:22N 33°46' W 118°16'0 0.0
2017-Sep-09 06:58N 33°46' W 118°16'0 0.0
2017-Sep-09 05:22N 33°46' W 118°16'0 0.0
2017-Sep-09 04:46N 33°46' W 118°16'0 0.0
2017-Sep-09 04:28N 33°46' W 118°16'0 0.0
2017-Sep-09 03:55N 33°46' W 118°16'0 0.0
2017-Sep-09 03:28N 33°46' W 118°16'0 0.0
2017-Sep-09 02:58N 33°46' W 118°16'0 0.0
2017-Sep-09 02:22N 33°46' W 118°16'0 0.0
2017-Sep-09 01:40N 33°46' W 118°16'0 0.0
2017-Sep-09 01:28N 33°46' W 118°16'0 0.0
2017-Sep-09 00:46N 33°46' W 118°16'0 0.0
2017-Sep-09 00:28N 33°46' W 118°16'0 0.0
2017-Sep-08 23:16N 33°46' W 118°16'0 0.0
2017-Sep-08 22:55N 33°46' W 118°16'0 0.0
2017-Sep-08 22:13N 33°46' W 118°16'0 0.0
2017-Sep-08 21:52N 33°46' W 118°16'0 0.0
2017-Sep-08 21:22N 33°46' W 118°16'0 0.0
2017-Sep-08 20:55N 33°46' W 118°16'0 0.0
2017-Sep-08 20:28N 33°46' W 118°16'0 0.0
2017-Sep-08 19:55N 33°46' W 118°16'0 0.0
2017-Sep-08 19:25N 33°46' W 118°16'0 0.0
2017-Sep-08 18:58N 33°46' W 118°16'0 0.0
2017-Sep-08 18:25N 33°46' W 118°16'0 0.0
2017-Sep-08 17:58N 33°46' W 118°16'0 0.0
2017-Sep-08 17:28N 33°46' W 118°16'0 0.0
2017-Sep-08 16:52N 33°46' W 118°16'0 0.0
2017-Sep-08 16:28N 33°46' W 118°16'0 0.0
2017-Sep-08 15:49N 33°46' W 118°16'0 0.6
2017-Sep-08 15:30N 33°46' W 118°16'2 3.1
2017-Sep-08 15:00N 33°44' W 118°17'3 5.5
2017-Sep-08 14:30N 33°42' W 118°15'2 4.5
2017-Sep-08 14:00N 33°43' W 118°12'0 0.2
2017-Sep-08 13:20N 33°43' W 118°12'0 0.0
2017-Sep-08 12:59N 33°43' W 118°12'0 0.0
2017-Sep-08 12:29N 33°43' W 118°12'0 0.0
2017-Sep-08 11:59N 33°43' W 118°12'0 0.0
2017-Sep-08 11:29N 33°43' W 118°12'0 0.0
2017-Sep-08 10:56N 33°43' W 118°12'0 0.0
2017-Sep-08 10:29N 33°43' W 118°12'0 0.0
2017-Sep-08 09:56N 33°43' W 118°12'0 0.0
2017-Sep-08 09:29N 33°43' W 118°12'0 0.0
2017-Sep-08 08:59N 33°43' W 118°12'0 0.0
2017-Sep-08 08:29N 33°43' W 118°12'0 0.0
2017-Sep-08 07:59N 33°43' W 118°12'0 0.0
2017-Sep-08 07:29N 33°43' W 118°12'0 0.1
2017-Sep-08 06:59N 33°43' W 118°12'0 0.1
2017-Sep-08 06:26N 33°43' W 118°12'0 0.1
2017-Sep-08 05:59N 33°43' W 118°12'0 0.0
2017-Sep-08 05:29N 33°43' W 118°12'0 0.0
2017-Sep-08 04:59N 33°43' W 118°12'0 0.0
2017-Sep-08 04:29N 33°43' W 118°12'0 0.0
2017-Sep-08 03:59N 33°43' W 118°12'0 0.0
2017-Sep-08 03:29N 33°43' W 118°12'0 0.0
2017-Sep-08 02:59N 33°43' W 118°12'0 0.0
2017-Sep-08 02:29N 33°43' W 118°12'0 0.0
2017-Sep-08 01:59N 33°43' W 118°12'0 0.0
2017-Sep-08 01:26N 33°43' W 118°12'0 0.0
2017-Sep-08 00:59N 33°43' W 118°12'0 0.0
2017-Sep-08 00:29N 33°43' W 118°12'0 0.0
2017-Sep-07 23:59N 33°43' W 118°12'0 0.0
2017-Sep-07 23:29N 33°43' W 118°12'0 0.0
2017-Sep-07 22:59N 33°43' W 118°12'0 0.0
2017-Sep-07 22:29N 33°43' W 118°12'0 0.0
2017-Sep-07 21:59N 33°43' W 118°12'0 0.0
2017-Sep-07 21:29N 33°43' W 118°12'0 0.0
2017-Sep-07 20:59N 33°43' W 118°12'0 0.0
2017-Sep-07 20:29N 33°43' W 118°12'0 0.0
2017-Sep-07 19:59N 33°43' W 118°12'0 0.1
2017-Sep-07 19:29N 33°43' W 118°12'0 0.0
2017-Sep-07 18:59N 33°43' W 118°12'0 0.0
2017-Sep-07 18:26N 33°43' W 118°12'0 0.1
2017-Sep-07 17:59N 33°43' W 118°12'0 0.0
2017-Sep-07 17:29N 33°43' W 118°12'0 0.0
2017-Sep-07 16:59N 33°43' W 118°12'0 0.0
2017-Sep-07 16:29N 33°43' W 118°12'0 0.0
2017-Sep-07 15:56N 33°43' W 118°12'0 0.0
2017-Sep-07 15:29N 33°43' W 118°12'0 0.0
2017-Sep-07 14:59N 33°43' W 118°12'0 0.0
2017-Sep-07 14:29N 33°43' W 118°12'0 0.0
2017-Sep-07 13:56N 33°43' W 118°12'0 0.0
2017-Sep-07 13:29N 33°43' W 118°12'0 0.0
2017-Sep-07 12:56N 33°43' W 118°12'0 0.0
2017-Sep-07 12:29N 33°43' W 118°12'0 0.0
2017-Sep-07 11:59N 33°43' W 118°12'0 0.0
2017-Sep-07 11:29N 33°43' W 118°12'0 0.0
2017-Sep-07 10:59N 33°43' W 118°12'0 0.0
2017-Sep-07 10:29N 33°43' W 118°12'0 0.0
2017-Sep-07 09:59N 33°43' W 118°12'0 0.0
2017-Sep-07 09:29N 33°43' W 118°12'0 0.1
2017-Sep-07 08:59N 33°43' W 118°12'0 0.0
2017-Sep-07 08:29N 33°43' W 118°12'0 0.0
2017-Sep-07 07:59N 33°43' W 118°12'0 0.0
2017-Sep-07 07:29N 33°43' W 118°12'0 0.0
2017-Sep-07 06:59N 33°43' W 118°12'0 0.0
2017-Sep-07 06:29N 33°43' W 118°12'0 0.0
2017-Sep-07 05:59N 33°43' W 118°12'0 0.0
2017-Sep-07 05:26N 33°43' W 118°12'0 0.0
2017-Sep-07 04:59N 33°43' W 118°12'0 0.0
2017-Sep-07 04:29N 33°43' W 118°12'0 0.0
2017-Sep-07 03:56N 33°43' W 118°12'0 0.0
2017-Sep-07 03:29N 33°43' W 118°12'0 0.0
2017-Sep-07 02:59N 33°43' W 118°12'0 0.0
2017-Sep-07 02:29N 33°43' W 118°12'0 0.0
2017-Sep-07 01:59N 33°43' W 118°12'0 0.0
2017-Sep-07 01:29N 33°43' W 118°12'0 0.0
2017-Sep-07 00:59N 33°43' W 118°12'0 0.0
2017-Sep-07 00:29N 33°43' W 118°12'0 0.0
2017-Sep-06 23:59N 33°43' W 118°12'0 0.0
2017-Sep-06 23:29N 33°43' W 118°12'0 0.0
2017-Sep-06 22:59N 33°43' W 118°12'0 0.0
2017-Sep-06 22:29N 33°43' W 118°12'0 0.0
2017-Sep-06 21:59N 33°43' W 118°12'0 0.0
2017-Sep-06 21:29N 33°43' W 118°12'0 0.0
2017-Sep-06 20:53N 33°43' W 118°12'0 0.0
2017-Sep-06 20:26N 33°43' W 118°12'0 0.1
2017-Sep-06 19:59N 33°43' W 118°12'0 0.1
2017-Sep-06 19:29N 33°43' W 118°12'0 0.1
2017-Sep-06 18:59N 33°43' W 118°12'0 0.0
2017-Sep-06 18:29N 33°43' W 118°12'0 0.1
2017-Sep-06 17:59N 33°43' W 118°12'0 0.0
2017-Sep-06 17:29N 33°43' W 118°12'0 0.0
2017-Sep-06 16:59N 33°43' W 118°12'0 0.0
2017-Sep-06 16:26N 33°43' W 118°12'0 0.0
2017-Sep-06 15:59N 33°43' W 118°12'0 0.1
2017-Sep-06 15:29N 33°43' W 118°12'0 0.1
2017-Sep-06 14:59N 33°43' W 118°12'0 0.1
2017-Sep-06 14:23N 33°43' W 118°12'0 0.0
2017-Sep-06 13:59N 33°43' W 118°12'0 0.1
2017-Sep-06 13:29N 33°43' W 118°12'0 0.0
2017-Sep-06 12:59N 33°43' W 118°12'0 0.0
2017-Sep-06 12:29N 33°43' W 118°12'0 0.0
2017-Sep-06 11:56N 33°43' W 118°12'0 0.0
2017-Sep-06 11:29N 33°43' W 118°12'0 0.0
2017-Sep-06 10:56N 33°43' W 118°12'0 0.0
2017-Sep-06 10:29N 33°43' W 118°12'0 0.0
2017-Sep-06 09:59N 33°43' W 118°12'0 0.1
2017-Sep-06 09:20N 33°43' W 118°12'0 0.1
2017-Sep-06 08:59N 33°43' W 118°12'0 0.0
2017-Sep-06 08:29N 33°43' W 118°12'0 0.1
2017-Sep-06 07:56N 33°43' W 118°12'0 0.0
2017-Sep-06 07:29N 33°43' W 118°12'0 0.0
2017-Sep-06 06:59N 33°43' W 118°12'0 0.0
2017-Sep-06 06:26N 33°43' W 118°12'0 0.1
2017-Sep-06 05:59N 33°43' W 118°12'0 0.0
2017-Sep-06 05:29N 33°43' W 118°12'0 0.1
2017-Sep-06 04:59N 33°43' W 118°12'0 0.0
2017-Sep-06 04:29N 33°43' W 118°12'0 0.1
2017-Sep-06 03:59N 33°43' W 118°12'0 0.0
2017-Sep-06 03:29N 33°43' W 118°12'0 0.0
2017-Sep-06 02:59N 33°43' W 118°12'0 0.0
2017-Sep-06 02:20N 33°43' W 118°12'0 0.0
2017-Sep-06 01:59N 33°43' W 118°12'0 0.0
2017-Sep-06 01:29N 33°43' W 118°12'0 0.0
2017-Sep-06 00:59N 33°43' W 118°12'0 0.0
2017-Sep-06 00:29N 33°43' W 118°12'0 0.0
2017-Sep-05 23:59N 33°43' W 118°12'0 0.0
2017-Sep-05 23:29N 33°43' W 118°12'0 0.0
2017-Sep-05 22:59N 33°43' W 118°12'0 0.0
2017-Sep-05 22:26N 33°43' W 118°12'0 0.0
2017-Sep-05 21:59N 33°43' W 118°12'0 0.0
2017-Sep-05 21:29N 33°43' W 118°12'0 0.0
2017-Sep-05 20:56N 33°43' W 118°12'0 0.0
2017-Sep-05 20:29N 33°43' W 118°12'0 0.1
2017-Sep-05 19:59N 33°43' W 118°12'0 0.1
2017-Sep-05 19:29N 33°43' W 118°12'0 0.1
2017-Sep-05 18:59N 33°43' W 118°12'0 0.1
2017-Sep-05 18:29N 33°43' W 118°12'0 0.1
2017-Sep-05 17:56N 33°43' W 118°12'0 0.1
2017-Sep-05 17:29N 33°43' W 118°12'0 0.0
2017-Sep-05 16:59N 33°43' W 118°12'0 0.1
2017-Sep-05 16:29N 33°43' W 118°12'0 0.0
2017-Sep-05 15:59N 33°43' W 118°12'0 0.3
2017-Sep-05 15:30N 33°43' W 118°12'1 1.3
2017-Sep-05 15:00N 33°42' W 118°12'2 4.4
2017-Sep-05 14:30N 33°40' W 118°13'4 8.9
2017-Sep-05 14:00N 33°36' W 118°16'6 8.8
2017-Sep-05 13:21N 33°37' W 118°23'2 4.6
2017-Sep-05 12:58N 33°38' W 118°24'4 8.2
2017-Sep-05 12:29N 33°40' W 118°29'4 8.5
2017-Sep-05 12:01N 33°42' W 118°33'4 8.5
2017-Sep-05 11:30N 33°44' W 118°37'4 8.3
2017-Sep-05 11:00N 33°46' W 118°42'4 8.3
2017-Sep-05 10:30N 33°48' W 118°46'4 8.5
2017-Sep-05 10:00N 33°50' W 118°50'510.4
2017-Sep-05 09:30N 33°53' W 118°56'611.5
2017-Sep-05 09:00N 33°56' W 119°02'611.6
2017-Sep-05 08:30N 33°58' W 119°08'611.5
2017-Sep-05 08:00N 34°01' W 119°14'611.4
2017-Sep-05 07:30N 34°04' W 119°20'611.6
2017-Sep-05 07:00N 34°05' W 119°27'612.0
2017-Sep-05 06:29N 34°07' W 119°34'611.9
2017-Sep-05 06:00N 34°08' W 119°41'611.9
2017-Sep-05 05:30N 34°10' W 119°48'711.7
2017-Sep-05 04:53N 34°12' W 119°56'411.7
2017-Sep-05 04:30N 34°13' W 120°02'612.0
2017-Sep-05 03:58N 34°15' W 120°09'612.0
2017-Sep-05 03:30N 34°16' W 120°16'611.7
2017-Sep-05 02:59N 34°18' W 120°23'611.6
2017-Sep-05 02:30N 34°19' W 120°29'510.3
2017-Sep-05 01:59N 34°21' W 120°35'5 9.9
2017-Sep-05 01:29N 34°22' W 120°41'510.0
2017-Sep-05 01:00N 34°23' W 120°47'510.1
2017-Sep-05 00:30N 34°25' W 120°53'510.5
2017-Sep-05 00:00N 34°26' W 120°59'611.1
2017-Sep-04 23:30N 34°28' W 121°05'611.7
2017-Sep-04 23:00N 34°30' W 121°12'612.0
2017-Sep-04 22:30N 34°32' W 121°19'611.8
2017-Sep-04 22:00N 34°34' W 121°25'611.7
2017-Sep-04 21:30N 34°36' W 121°32'3 6.5
2017-Sep-04 21:00N 34°38' W 121°36'611.2
2017-Sep-04 20:30N 34°40' W 121°42'612.6
2017-Sep-04 20:00N 34°42' W 121°49'612.5
2017-Sep-04 19:30N 34°44' W 121°56'712.4
2017-Sep-04 18:58N 34°46' W 122°04'812.5
2017-Sep-04 18:20N 34°49' W 122°13'412.6
2017-Sep-04 17:59N 34°50' W 122°18'612.5
2017-Sep-04 17:30N 34°53' W 122°25'3712.8
2017-Sep-04 14:38N 35°07' W 123°06'212.9
2017-Sep-04 14:30N 35°08' W 123°08'713.1
2017-Sep-04 14:00N 35°11' W 123°15'3013.1
2017-Sep-04 11:45N 35°24' W 123°47'313.6
2017-Sep-04 11:30N 35°26' W 123°51'713.7
2017-Sep-04 11:00N 35°29' W 123°58'813.8
2017-Sep-04 10:23N 35°32' W 124°08'613.8
2017-Sep-04 09:59N 35°35' W 124°14'1813.6
2017-Sep-04 08:41N 35°43' W 124°33'313.4
2017-Sep-04 08:30N 35°44' W 124°36'813.3
2017-Sep-04 07:53N 35°48' W 124°45'513.2
2017-Sep-04 07:30N 35°50' W 124°50'713.6
2017-Sep-04 07:00N 35°53' W 124°58'713.5
2017-Sep-04 06:30N 35°56' W 125°05'813.4
2017-Sep-04 05:57N 35°60' W 125°13'713.0
2017-Sep-04 05:24N 36°03' W 125°21'513.4
2017-Sep-04 05:00N 36°06' W 125°27'713.4
2017-Sep-04 04:30N 36°08' W 125°35'713.4
2017-Sep-04 04:00N 36°11' W 125°42'713.4
2017-Sep-04 03:30N 36°15' W 125°49'713.3
2017-Sep-04 03:00N 36°18' W 125°57'813.2
2017-Sep-04 02:22N 36°21' W 126°06'513.0
2017-Sep-04 02:00N 36°23' W 126°11'612.9
2017-Sep-04 01:30N 36°26' W 126°18'1112.9
2017-Sep-04 00:38N 36°31' W 126°31'212.9
2017-Sep-04 00:30N 36°32' W 126°33'612.8
2017-Sep-04 00:00N 36°35' W 126°40'612.8
2017-Sep-03 23:30N 36°38' W 126°47'8012.3
2017-Sep-03 17:00N 37°13' W 128°17'612.7
2017-Sep-03 16:30N 37°16' W 128°24'912.5
2017-Sep-03 15:48N 37°19' W 128°34'412.5
2017-Sep-03 15:30N 37°21' W 128°38'612.7
2017-Sep-03 15:00N 37°24' W 128°45'1312.8
2017-Sep-03 14:00N 37°29' W 128°60'612.7
2017-Sep-03 13:30N 37°32' W 129°07'612.8
2017-Sep-03 13:00N 37°35' W 129°15'612.7
2017-Sep-03 12:30N 37°37' W 129°22'612.8
2017-Sep-03 12:00N 37°40' W 129°29'612.7
2017-Sep-03 11:30N 37°42' W 129°37'612.5
2017-Sep-03 11:00N 37°45' W 129°44'612.4
2017-Sep-03 10:30N 37°48' W 129°51'  
Track history (hours):
 
Tides and Currents Weather Stations Pressure Air Temp Water Temp Dewpoint Dewpoint Depression Visibility Wind Speed Wind Dir Waves Ship Positions

N.mars

Last reported at 2017-Sep-13 10:30 UTC. Time now 2017-Sep-25 15:15 UTC.
Position N 30°49' W 116°60'.
Warning: this ship's position is 12 days out of date.

Length 228 m; draft 10.9 m.

Type: Tanker. MMSI: 210857000.

Date/timePositionNaut miles runAvg speedWind from/ knotsBaromVisibWave heightAir tempDewpointWater temp
2017-Sep-13 10:30N 30°49' W 116°60'1 1.1
2017-Sep-13 09:48N 30°50' W 117°00'0 1.2
2017-Sep-13 09:24N 30°50' W 117°01'1 1.4
2017-Sep-13 08:21N 30°51' W 117°03'3 1.4
2017-Sep-13 06:09N 30°52' W 117°06'1 1.5
2017-Sep-13 05:24N 30°52' W 117°07'1 1.3
2017-Sep-13 04:48N 30°52' W 117°08'2 0.9
2017-Sep-13 02:31N 30°51' W 117°09'912.1
2017-Sep-13 01:48N 30°42' W 117°06'412.2
2017-Sep-13 01:29N 30°39' W 117°05'612.5
2017-Sep-13 01:00N 30°33' W 117°04'812.4
2017-Sep-13 00:21N 30°25' W 117°01'412.4
2017-Sep-13 00:00N 30°21' W 117°00'912.2
2017-Sep-12 23:15N 30°12' W 116°58'312.2
2017-Sep-12 23:00N 30°09' W 116°57'  
2017-Sep-10 06:14N 30°47' W 117°08'813.6
2017-Sep-10 05:37N 30°55' W 117°11'213.7
2017-Sep-10 05:29N 30°57' W 117°11'1214.0
2017-Sep-10 04:38N 31°08' W 117°14'214.0
2017-Sep-10 04:30N 31°10' W 117°15'1714.2
2017-Sep-10 03:19N 31°26' W 117°20'414.4
2017-Sep-10 03:00N 31°31' W 117°21'714.3
2017-Sep-10 02:30N 31°38' W 117°23'714.3
2017-Sep-10 02:01N 31°45' W 117°25'714.0
2017-Sep-10 01:30N 31°51' W 117°26'813.4
2017-Sep-10 00:56N 31°59' W 117°29'613.3
2017-Sep-10 00:30N 32°04' W 117°30'713.5
2017-Sep-10 00:00N 32°11' W 117°32'713.7
2017-Sep-09 23:30N 32°18' W 117°34'713.4
2017-Sep-09 23:00N 32°24' W 117°36'611.6
2017-Sep-09 22:30N 32°30' W 117°38'612.1
2017-Sep-09 22:00N 32°36' W 117°39'713.2
2017-Sep-09 21:30N 32°42' W 117°42'713.2
2017-Sep-09 21:00N 32°48' W 117°46'713.1
2017-Sep-09 20:30N 32°53' W 117°50'713.0
2017-Sep-09 20:00N 32°59' W 117°54'612.9
2017-Sep-09 19:30N 33°05' W 117°57'713.0
2017-Sep-09 19:00N 33°10' W 118°01'612.9
2017-Sep-09 18:30N 33°16' W 118°05'612.9
2017-Sep-09 18:00N 33°22' W 118°08'713.0
2017-Sep-09 17:30N 33°28' W 118°10'713.0
2017-Sep-09 17:01N 33°34' W 118°13'612.6
2017-Sep-09 16:30N 33°40' W 118°15'3 6.7
2017-Sep-09 16:00N 33°44' W 118°16'2 4.3
2017-Sep-09 15:30N 33°46' W 118°16'0 0.4
2017-Sep-09 15:00N 33°46' W 118°16'0 0.0
2017-Sep-09 11:04N 33°46' W 118°16'0 0.0
2017-Sep-09 10:46N 33°46' W 118°16'0 0.0
2017-Sep-09 10:28N 33°46' W 118°16'0 0.0
2017-Sep-09 09:04N 33°46' W 118°16'0 0.0
2017-Sep-09 08:52N 33°46' W 118°16'0 0.0
2017-Sep-09 07:40N 33°46' W 118°16'0 0.0
2017-Sep-09 07:22N 33°46' W 118°16'0 0.0
2017-Sep-09 06:58N 33°46' W 118°16'0 0.0
2017-Sep-09 05:22N 33°46' W 118°16'0 0.0
2017-Sep-09 04:46N 33°46' W 118°16'0 0.0
2017-Sep-09 04:28N 33°46' W 118°16'0 0.0
2017-Sep-09 03:55N 33°46' W 118°16'0 0.0
2017-Sep-09 03:28N 33°46' W 118°16'0 0.0
2017-Sep-09 02:58N 33°46' W 118°16'0 0.0
2017-Sep-09 02:22N 33°46' W 118°16'0 0.0
2017-Sep-09 01:40N 33°46' W 118°16'0 0.0
2017-Sep-09 01:28N 33°46' W 118°16'0 0.0
2017-Sep-09 00:46N 33°46' W 118°16'0 0.0
2017-Sep-09 00:28N 33°46' W 118°16'0 0.0
2017-Sep-08 23:16N 33°46' W 118°16'0 0.0
2017-Sep-08 22:55N 33°46' W 118°16'0 0.0
2017-Sep-08 22:13N 33°46' W 118°16'0 0.0
2017-Sep-08 21:52N 33°46' W 118°16'0 0.0
2017-Sep-08 21:22N 33°46' W 118°16'0 0.0
2017-Sep-08 20:55N 33°46' W 118°16'0 0.0
2017-Sep-08 20:28N 33°46' W 118°16'0 0.0
2017-Sep-08 19:55N 33°46' W 118°16'0 0.0
2017-Sep-08 19:25N 33°46' W 118°16'0 0.0
2017-Sep-08 18:58N 33°46' W 118°16'0 0.0
2017-Sep-08 18:25N 33°46' W 118°16'0 0.0
2017-Sep-08 17:58N 33°46' W 118°16'0 0.0
2017-Sep-08 17:28N 33°46' W 118°16'0 0.0
2017-Sep-08 16:52N 33°46' W 118°16'0 0.0
2017-Sep-08 16:28N 33°46' W 118°16'0 0.0
2017-Sep-08 15:49N 33°46' W 118°16'0 0.6
2017-Sep-08 15:30N 33°46' W 118°16'2 3.1
2017-Sep-08 15:00N 33°44' W 118°17'3 5.5
2017-Sep-08 14:30N 33°42' W 118°15'2 4.5
2017-Sep-08 14:00N 33°43' W 118°12'0 0.2
2017-Sep-08 13:20N 33°43' W 118°12'0 0.0
2017-Sep-08 12:59N 33°43' W 118°12'0 0.0
2017-Sep-08 12:29N 33°43' W 118°12'0 0.0
2017-Sep-08 11:59N 33°43' W 118°12'0 0.0
2017-Sep-08 11:29N 33°43' W 118°12'0 0.0
2017-Sep-08 10:56N 33°43' W 118°12'0 0.0
2017-Sep-08 10:29N 33°43' W 118°12'0 0.0
2017-Sep-08 09:56N 33°43' W 118°12'0 0.0
2017-Sep-08 09:29N 33°43' W 118°12'0 0.0
2017-Sep-08 08:59N 33°43' W 118°12'0 0.0
2017-Sep-08 08:29N 33°43' W 118°12'0 0.0
2017-Sep-08 07:59N 33°43' W 118°12'0 0.0
2017-Sep-08 07:29N 33°43' W 118°12'0 0.1
2017-Sep-08 06:59N 33°43' W 118°12'0 0.1
2017-Sep-08 06:26N 33°43' W 118°12'0 0.1
2017-Sep-08 05:59N 33°43' W 118°12'0 0.0
2017-Sep-08 05:29N 33°43' W 118°12'0 0.0
2017-Sep-08 04:59N 33°43' W 118°12'0 0.0
2017-Sep-08 04:29N 33°43' W 118°12'0 0.0
2017-Sep-08 03:59N 33°43' W 118°12'0 0.0
2017-Sep-08 03:29N 33°43' W 118°12'0 0.0
2017-Sep-08 02:59N 33°43' W 118°12'0 0.0
2017-Sep-08 02:29N 33°43' W 118°12'0 0.0
2017-Sep-08 01:59N 33°43' W 118°12'0 0.0
2017-Sep-08 01:26N 33°43' W 118°12'0 0.0
2017-Sep-08 00:59N 33°43' W 118°12'0 0.0
2017-Sep-08 00:29N 33°43' W 118°12'0 0.0
2017-Sep-07 23:59N 33°43' W 118°12'0 0.0
2017-Sep-07 23:29N 33°43' W 118°12'0 0.0
2017-Sep-07 22:59N 33°43' W 118°12'0 0.0
2017-Sep-07 22:29N 33°43' W 118°12'0 0.0
2017-Sep-07 21:59N 33°43' W 118°12'0 0.0
2017-Sep-07 21:29N 33°43' W 118°12'0 0.0
2017-Sep-07 20:59N 33°43' W 118°12'0 0.0
2017-Sep-07 20:29N 33°43' W 118°12'0 0.0
2017-Sep-07 19:59N 33°43' W 118°12'0 0.1
2017-Sep-07 19:29N 33°43' W 118°12'0 0.0
2017-Sep-07 18:59N 33°43' W 118°12'0 0.0
2017-Sep-07 18:26N 33°43' W 118°12'0 0.1
2017-Sep-07 17:59N 33°43' W 118°12'0 0.0
2017-Sep-07 17:29N 33°43' W 118°12'0 0.0
2017-Sep-07 16:59N 33°43' W 118°12'0 0.0
2017-Sep-07 16:29N 33°43' W 118°12'0 0.0
2017-Sep-07 15:56N 33°43' W 118°12'0 0.0
2017-Sep-07 15:29N 33°43' W 118°12'0 0.0
2017-Sep-07 14:59N 33°43' W 118°12'0 0.0
2017-Sep-07 14:29N 33°43' W 118°12'0 0.0
2017-Sep-07 13:56N 33°43' W 118°12'0 0.0
2017-Sep-07 13:29N 33°43' W 118°12'0 0.0
2017-Sep-07 12:56N 33°43' W 118°12'0 0.0
2017-Sep-07 12:29N 33°43' W 118°12'0 0.0
2017-Sep-07 11:59N 33°43' W 118°12'0 0.0
2017-Sep-07 11:29N 33°43' W 118°12'0 0.0
2017-Sep-07 10:59N 33°43' W 118°12'0 0.0
2017-Sep-07 10:29N 33°43' W 118°12'0 0.0
2017-Sep-07 09:59N 33°43' W 118°12'0 0.0
2017-Sep-07 09:29N 33°43' W 118°12'0 0.1
2017-Sep-07 08:59N 33°43' W 118°12'0 0.0
2017-Sep-07 08:29N 33°43' W 118°12'0 0.0
2017-Sep-07 07:59N 33°43' W 118°12'0 0.0
2017-Sep-07 07:29N 33°43' W 118°12'0 0.0
2017-Sep-07 06:59N 33°43' W 118°12'0 0.0
2017-Sep-07 06:29N 33°43' W 118°12'0 0.0
2017-Sep-07 05:59N 33°43' W 118°12'0 0.0
2017-Sep-07 05:26N 33°43' W 118°12'0 0.0
2017-Sep-07 04:59N 33°43' W 118°12'0 0.0
2017-Sep-07 04:29N 33°43' W 118°12'0 0.0
2017-Sep-07 03:56N 33°43' W 118°12'0 0.0
2017-Sep-07 03:29N 33°43' W 118°12'0 0.0
2017-Sep-07 02:59N 33°43' W 118°12'0 0.0
2017-Sep-07 02:29N 33°43' W 118°12'0 0.0
2017-Sep-07 01:59N 33°43' W 118°12'0 0.0
2017-Sep-07 01:29N 33°43' W 118°12'0 0.0
2017-Sep-07 00:59N 33°43' W 118°12'0 0.0
2017-Sep-07 00:29N 33°43' W 118°12'0 0.0
2017-Sep-06 23:59N 33°43' W 118°12'0 0.0
2017-Sep-06 23:29N 33°43' W 118°12'0 0.0
2017-Sep-06 22:59N 33°43' W 118°12'0 0.0
2017-Sep-06 22:29N 33°43' W 118°12'0 0.0
2017-Sep-06 21:59N 33°43' W 118°12'0 0.0
2017-Sep-06 21:29N 33°43' W 118°12'0 0.0
2017-Sep-06 20:53N 33°43' W 118°12'0 0.0
2017-Sep-06 20:26N 33°43' W 118°12'0 0.1
2017-Sep-06 19:59N 33°43' W 118°12'0 0.1
2017-Sep-06 19:29N 33°43' W 118°12'0 0.1
2017-Sep-06 18:59N 33°43' W 118°12'0 0.0
2017-Sep-06 18:29N 33°43' W 118°12'0 0.1
2017-Sep-06 17:59N 33°43' W 118°12'0 0.0
2017-Sep-06 17:29N 33°43' W 118°12'0 0.0
2017-Sep-06 16:59N 33°43' W 118°12'0 0.0
2017-Sep-06 16:26N 33°43' W 118°12'0 0.0
2017-Sep-06 15:59N 33°43' W 118°12'0 0.1
2017-Sep-06 15:29N 33°43' W 118°12'0 0.1
2017-Sep-06 14:59N 33°43' W 118°12'0 0.1
2017-Sep-06 14:23N 33°43' W 118°12'0 0.0
2017-Sep-06 13:59N 33°43' W 118°12'0 0.1
2017-Sep-06 13:29N 33°43' W 118°12'0 0.0
2017-Sep-06 12:59N 33°43' W 118°12'0 0.0
2017-Sep-06 12:29N 33°43' W 118°12'0 0.0
2017-Sep-06 11:56N 33°43' W 118°12'0 0.0
2017-Sep-06 11:29N 33°43' W 118°12'0 0.0
2017-Sep-06 10:56N 33°43' W 118°12'0 0.0
2017-Sep-06 10:29N 33°43' W 118°12'0 0.0
2017-Sep-06 09:59N 33°43' W 118°12'0 0.1
2017-Sep-06 09:20N 33°43' W 118°12'0 0.1
2017-Sep-06 08:59N 33°43' W 118°12'0 0.0
2017-Sep-06 08:29N 33°43' W 118°12'0 0.1
2017-Sep-06 07:56N 33°43' W 118°12'0 0.0
2017-Sep-06 07:29N 33°43' W 118°12'0 0.0
2017-Sep-06 06:59N 33°43' W 118°12'0 0.0
2017-Sep-06 06:26N 33°43' W 118°12'0 0.1
2017-Sep-06 05:59N 33°43' W 118°12'0 0.0
2017-Sep-06 05:29N 33°43' W 118°12'0 0.1
2017-Sep-06 04:59N 33°43' W 118°12'0 0.0
2017-Sep-06 04:29N 33°43' W 118°12'0 0.1
2017-Sep-06 03:59N 33°43' W 118°12'0 0.0
2017-Sep-06 03:29N 33°43' W 118°12'0 0.0
2017-Sep-06 02:59N 33°43' W 118°12'0 0.0
2017-Sep-06 02:20N 33°43' W 118°12'0 0.0
2017-Sep-06 01:59N 33°43' W 118°12'0 0.0
2017-Sep-06 01:29N 33°43' W 118°12'0 0.0
2017-Sep-06 00:59N 33°43' W 118°12'0 0.0
2017-Sep-06 00:29N 33°43' W 118°12'0 0.0
2017-Sep-05 23:59N 33°43' W 118°12'0 0.0
2017-Sep-05 23:29N 33°43' W 118°12'0 0.0
2017-Sep-05 22:59N 33°43' W 118°12'0 0.0
2017-Sep-05 22:26N 33°43' W 118°12'0 0.0
2017-Sep-05 21:59N 33°43' W 118°12'0 0.0
2017-Sep-05 21:29N 33°43' W 118°12'0 0.0
2017-Sep-05 20:56N 33°43' W 118°12'0 0.0
2017-Sep-05 20:29N 33°43' W 118°12'0 0.1
2017-Sep-05 19:59N 33°43' W 118°12'0 0.1
2017-Sep-05 19:29N 33°43' W 118°12'0 0.1
2017-Sep-05 18:59N 33°43' W 118°12'0 0.1
2017-Sep-05 18:29N 33°43' W 118°12'0 0.1
2017-Sep-05 17:56N 33°43' W 118°12'0 0.1
2017-Sep-05 17:29N 33°43' W 118°12'0 0.0
2017-Sep-05 16:59N 33°43' W 118°12'0 0.1
2017-Sep-05 16:29N 33°43' W 118°12'0 0.0
2017-Sep-05 15:59N 33°43' W 118°12'0 0.3
2017-Sep-05 15:30N 33°43' W 118°12'1 1.3
2017-Sep-05 15:00N 33°42' W 118°12'2 4.4
2017-Sep-05 14:30N 33°40' W 118°13'4 8.9
2017-Sep-05 14:00N 33°36' W 118°16'6 8.8
2017-Sep-05 13:21N 33°37' W 118°23'2 4.6
2017-Sep-05 12:58N 33°38' W 118°24'4 8.2
2017-Sep-05 12:29N 33°40' W 118°29'4 8.5
2017-Sep-05 12:01N 33°42' W 118°33'4 8.5
2017-Sep-05 11:30N 33°44' W 118°37'4 8.3
2017-Sep-05 11:00N 33°46' W 118°42'4 8.3
2017-Sep-05 10:30N 33°48' W 118°46'4 8.5
2017-Sep-05 10:00N 33°50' W 118°50'510.4
2017-Sep-05 09:30N 33°53' W 118°56'611.5
2017-Sep-05 09:00N 33°56' W 119°02'611.6
2017-Sep-05 08:30N 33°58' W 119°08'611.5
2017-Sep-05 08:00N 34°01' W 119°14'611.4
2017-Sep-05 07:30N 34°04' W 119°20'611.6
2017-Sep-05 07:00N 34°05' W 119°27'612.0
2017-Sep-05 06:29N 34°07' W 119°34'611.9
2017-Sep-05 06:00N 34°08' W 119°41'611.9
2017-Sep-05 05:30N 34°10' W 119°48'711.7
2017-Sep-05 04:53N 34°12' W 119°56'411.7
2017-Sep-05 04:30N 34°13' W 120°02'612.0
2017-Sep-05 03:58N 34°15' W 120°09'612.0
2017-Sep-05 03:30N 34°16' W 120°16'611.7
2017-Sep-05 02:59N 34°18' W 120°23'611.6
2017-Sep-05 02:30N 34°19' W 120°29'510.3
2017-Sep-05 01:59N 34°21' W 120°35'5 9.9
2017-Sep-05 01:29N 34°22' W 120°41'510.0
2017-Sep-05 01:00N 34°23' W 120°47'510.1
2017-Sep-05 00:30N 34°25' W 120°53'510.5
2017-Sep-05 00:00N 34°26' W 120°59'611.1
2017-Sep-04 23:30N 34°28' W 121°05'611.7
2017-Sep-04 23:00N 34°30' W 121°12'612.0
2017-Sep-04 22:30N 34°32' W 121°19'611.8
2017-Sep-04 22:00N 34°34' W 121°25'611.7
2017-Sep-04 21:30N 34°36' W 121°32'3 6.5
2017-Sep-04 21:00N 34°38' W 121°36'611.2
2017-Sep-04 20:30N 34°40' W 121°42'612.6
2017-Sep-04 20:00N 34°42' W 121°49'612.5
2017-Sep-04 19:30N 34°44' W 121°56'712.4
2017-Sep-04 18:58N 34°46' W 122°04'812.5
2017-Sep-04 18:20N 34°49' W 122°13'412.6
2017-Sep-04 17:59N 34°50' W 122°18'612.5
2017-Sep-04 17:30N 34°53' W 122°25'3712.8
2017-Sep-04 14:38N 35°07' W 123°06'212.9
2017-Sep-04 14:30N 35°08' W 123°08'713.1
2017-Sep-04 14:00N 35°11' W 123°15'3013.1
2017-Sep-04 11:45N 35°24' W 123°47'313.6
2017-Sep-04 11:30N 35°26' W 123°51'713.7
2017-Sep-04 11:00N 35°29' W 123°58'813.8
2017-Sep-04 10:23N 35°32' W 124°08'613.8
2017-Sep-04 09:59N 35°35' W 124°14'1813.6
2017-Sep-04 08:41N 35°43' W 124°33'313.4
2017-Sep-04 08:30N 35°44' W 124°36'813.3
2017-Sep-04 07:53N 35°48' W 124°45'513.2
2017-Sep-04 07:30N 35°50' W 124°50'713.6
2017-Sep-04 07:00N 35°53' W 124°58'713.5
2017-Sep-04 06:30N 35°56' W 125°05'813.4
2017-Sep-04 05:57N 35°60' W 125°13'713.0
2017-Sep-04 05:24N 36°03' W 125°21'513.4
2017-Sep-04 05:00N 36°06' W 125°27'713.4
2017-Sep-04 04:30N 36°08' W 125°35'713.4
2017-Sep-04 04:00N 36°11' W 125°42'713.4
2017-Sep-04 03:30N 36°15' W 125°49'713.3
2017-Sep-04 03:00N 36°18' W 125°57'813.2
2017-Sep-04 02:22N 36°21' W 126°06'513.0
2017-Sep-04 02:00N 36°23' W 126°11'612.9
2017-Sep-04 01:30N 36°26' W 126°18'1112.9
2017-Sep-04 00:38N 36°31' W 126°31'212.9
2017-Sep-04 00:30N 36°32' W 126°33'612.8
2017-Sep-04 00:00N 36°35' W 126°40'612.8
2017-Sep-03 23:30N 36°38' W 126°47'8012.3
2017-Sep-03 17:00N 37°13' W 128°17'612.7
2017-Sep-03 16:30N 37°16' W 128°24'912.5
2017-Sep-03 15:48N 37°19' W 128°34'412.5
2017-Sep-03 15:30N 37°21' W 128°38'612.7
2017-Sep-03 15:00N 37°24' W 128°45'1312.8
2017-Sep-03 14:00N 37°29' W 128°60'612.7
2017-Sep-03 13:30N 37°32' W 129°07'612.8
2017-Sep-03 13:00N 37°35' W 129°15'612.7
2017-Sep-03 12:30N 37°37' W 129°22'612.8
2017-Sep-03 12:00N 37°40' W 129°29'612.7
2017-Sep-03 11:30N 37°42' W 129°37'612.5
2017-Sep-03 11:00N 37°45' W 129°44'612.4
2017-Sep-03 10:30N 37°48' W 129°51'  

Dump ship's entire track history